createdAt,value
2017-11-30T00:01:20.513Z,3.70
2017-11-30T00:03:48.013Z,3.70
2017-11-30T00:06:15.708Z,3.80
2017-11-30T00:08:43.268Z,3.60
2017-11-30T00:11:10.758Z,3.50
2017-11-30T00:13:38.258Z,3.50
2017-11-30T00:16:06.508Z,3.30
2017-11-30T00:18:34.002Z,3.30
2017-11-30T00:21:01.527Z,3.30
2017-11-30T00:23:29.025Z,3.20
2017-11-30T00:25:57.285Z,3.10
2017-11-30T00:28:24.812Z,3.10
2017-11-30T00:30:53.079Z,2.90
2017-11-30T00:33:21.421Z,2.80
2017-11-30T00:35:49.695Z,2.70
2017-11-30T00:38:17.193Z,2.70
2017-11-30T00:40:45.463Z,2.70
2017-11-30T00:43:30.981Z,2.60
2017-11-30T00:45:58.583Z,2.80
2017-11-30T00:48:26.868Z,2.60
2017-11-30T00:50:54.423Z,2.60
2017-11-30T00:53:21.912Z,2.50
2017-11-30T00:55:49.533Z,2.50
2017-11-30T00:58:17.032Z,2.50
2017-11-30T01:00:46.323Z,2.50
2017-11-30T01:03:13.840Z,2.40
2017-11-30T01:05:42.106Z,2.40
2017-11-30T01:08:09.601Z,2.40
2017-11-30T01:10:37.088Z,2.50
2017-11-30T01:13:04.666Z,2.50
2017-11-30T01:15:32.981Z,2.60
2017-11-30T01:18:01.277Z,2.60
2017-11-30T01:20:28.792Z,2.50
2017-11-30T01:22:57.033Z,2.70
2017-11-30T01:25:24.537Z,2.70
2017-11-30T01:27:52.042Z,2.70
2017-11-30T01:30:20.315Z,2.80
2017-11-30T01:32:47.828Z,2.80
2017-11-30T01:35:16.849Z,2.70
2017-11-30T01:37:44.377Z,2.70
2017-11-30T01:40:11.923Z,2.80
2017-11-30T01:42:40.190Z,2.90
2017-11-30T01:45:07.689Z,2.80
2017-11-30T01:47:35.184Z,2.90
2017-11-30T01:50:02.683Z,2.90
2017-11-30T01:52:30.947Z,2.90
2017-11-30T01:54:58.427Z,2.80
2017-11-30T01:57:25.937Z,2.90
2017-11-30T01:59:53.554Z,3.00
2017-11-30T02:02:21.854Z,2.90
2017-11-30T02:04:50.253Z,2.80
2017-11-30T02:07:17.740Z,2.80
2017-11-30T02:09:46.015Z,2.80
2017-11-30T02:12:13.517Z,2.80
2017-11-30T02:14:41.818Z,2.70
2017-11-30T02:17:10.083Z,2.70
2017-11-30T02:19:37.597Z,2.60
2017-11-30T02:22:05.069Z,2.60
2017-11-30T02:24:32.591Z,2.60
2017-11-30T02:27:00.872Z,2.70
2017-11-30T02:29:29.283Z,2.60
2017-11-30T02:31:57.555Z,2.60
2017-11-30T02:34:25.172Z,2.60
2017-11-30T02:36:53.419Z,2.60
2017-11-30T02:39:20.928Z,2.60
2017-11-30T02:41:48.426Z,2.60
2017-11-30T02:44:15.897Z,2.60
2017-11-30T02:46:43.397Z,2.70
2017-11-30T02:49:10.894Z,2.70
2017-11-30T02:51:40.196Z,2.60
2017-11-30T02:54:07.693Z,2.60
2017-11-30T02:56:35.212Z,2.60
2017-11-30T02:59:02.779Z,2.80
2017-11-30T03:01:30.411Z,2.80
2017-11-30T03:03:58.705Z,2.60
2017-11-30T03:06:26.975Z,2.60
2017-11-30T03:08:54.486Z,2.60
2017-11-30T03:11:22.776Z,2.60
2017-11-30T03:13:51.032Z,2.70
2017-11-30T03:16:18.736Z,2.60
2017-11-30T03:18:46.216Z,2.70
2017-11-30T03:21:13.708Z,2.70
2017-11-30T03:23:41.217Z,2.90
2017-11-30T03:26:09.522Z,2.70
2017-11-30T03:28:37.111Z,2.70
2017-11-30T03:31:05.368Z,2.80
2017-11-30T03:33:32.895Z,2.70
2017-11-30T03:36:00.455Z,2.80
2017-11-30T03:38:27.964Z,2.90
2017-11-30T03:40:56.256Z,2.90
2017-11-30T03:43:24.535Z,2.80
2017-11-30T03:45:52.045Z,2.80
2017-11-30T03:48:20.305Z,2.70
2017-11-30T03:50:47.805Z,2.90
2017-11-30T03:53:15.292Z,2.90
2017-11-30T03:55:43.675Z,3.10
2017-11-30T03:58:11.200Z,3.10
2017-11-30T04:00:39.487Z,3.10
2017-11-30T04:03:06.970Z,3.10
2017-11-30T04:05:36.257Z,3.10
2017-11-30T04:08:03.774Z,3.10
2017-11-30T04:10:31.275Z,3.10
2017-11-30T04:13:00.305Z,3.10
2017-11-30T04:15:28.590Z,3.10
2017-11-30T04:17:56.115Z,3.10
2017-11-30T04:20:24.395Z,3.10
2017-11-30T04:22:52.707Z,2.80
2017-11-30T04:25:21.003Z,2.90
2017-11-30T04:27:49.271Z,2.90
2017-11-30T04:30:16.771Z,2.90
2017-11-30T04:32:45.098Z,2.90
2017-11-30T04:35:13.386Z,2.90
2017-11-30T04:37:41.669Z,2.90
2017-11-30T04:40:09.161Z,2.90
2017-11-30T04:42:36.705Z,2.90
2017-11-30T04:45:04.239Z,2.90
2017-11-30T04:47:32.513Z,2.70
2017-11-30T04:50:00.142Z,2.70
2017-11-30T04:52:28.448Z,2.70
2017-11-30T04:54:56.747Z,2.60
2017-11-30T04:57:25.068Z,2.60
2017-11-30T04:59:53.352Z,2.60
2017-11-30T05:02:20.848Z,2.60
2017-11-30T05:04:49.135Z,2.60
2017-11-30T05:07:16.642Z,2.60
2017-11-30T05:09:44.181Z,2.50
2017-11-30T05:12:11.712Z,2.60
2017-11-30T05:14:39.230Z,2.50
2017-11-30T05:17:07.728Z,2.50
2017-11-30T05:19:36.024Z,2.50
2017-11-30T05:22:04.333Z,2.50
2017-11-30T05:24:32.611Z,2.50
2017-11-30T05:27:00.111Z,2.40
2017-11-30T05:29:28.425Z,2.50
2017-11-30T05:31:57.243Z,2.40
2017-11-30T05:34:24.788Z,2.40
2017-11-30T05:36:52.364Z,2.50
2017-11-30T05:39:19.852Z,2.50
2017-11-30T05:41:47.336Z,2.50
2017-11-30T05:44:14.923Z,2.50
2017-11-30T05:46:42.442Z,2.50
2017-11-30T05:49:10.787Z,2.50
2017-11-30T05:51:38.293Z,2.50
2017-11-30T05:54:05.963Z,2.50
2017-11-30T05:56:33.450Z,2.60
2017-11-30T05:59:00.985Z,2.60
2017-11-30T06:01:29.377Z,2.60
2017-11-30T06:03:57.799Z,2.70
2017-11-30T06:06:25.291Z,2.70
2017-11-30T06:08:52.825Z,2.70
2017-11-30T06:11:20.594Z,2.70
2017-11-30T06:13:48.104Z,2.80
2017-11-30T06:18:36.575Z,2.80
2017-11-30T06:21:04.072Z,2.80
2017-11-30T06:23:32.481Z,2.90
2017-11-30T06:26:00.342Z,2.90
2017-11-30T06:28:27.853Z,3.00
2017-11-30T06:30:55.368Z,3.00
2017-11-30T06:33:23.715Z,3.10
2017-11-30T06:35:51.301Z,3.10
2017-11-30T06:38:18.924Z,3.10
2017-11-30T06:40:47.338Z,3.10
2017-11-30T06:43:15.026Z,3.10
2017-11-30T06:45:42.790Z,3.10
2017-11-30T06:48:10.343Z,3.20
2017-11-30T06:50:38.656Z,3.20
2017-11-30T06:53:06.541Z,3.20
2017-11-30T06:55:34.111Z,3.30
2017-11-30T06:58:02.403Z,3.30
2017-11-30T07:00:30.727Z,3.30
2017-11-30T07:02:58.208Z,3.30
2017-11-30T07:05:26.488Z,3.30
2017-11-30T07:07:54.031Z,3.30
2017-11-30T07:10:21.571Z,3.30
2017-11-30T07:12:49.192Z,3.30
2017-11-30T07:15:17.526Z,3.40
2017-11-30T07:17:46.094Z,3.40
2017-11-30T07:20:13.767Z,3.40
2017-11-30T07:22:41.330Z,3.50
2017-11-30T07:25:08.867Z,3.50
2017-11-30T07:27:36.512Z,3.60
2017-11-30T07:30:04.012Z,3.60
2017-11-30T07:32:31.497Z,3.60
2017-11-30T07:34:59.008Z,3.60
2017-11-30T07:37:26.507Z,3.50
2017-11-30T07:39:55.075Z,3.50
2017-11-30T07:42:22.589Z,3.50
2017-11-30T07:44:50.085Z,3.50
2017-11-30T07:47:19.380Z,3.50
2017-11-30T07:49:46.889Z,3.60
2017-11-30T07:52:14.370Z,3.70
2017-11-30T07:54:42.627Z,3.90
2017-11-30T07:57:10.907Z,3.90
2017-11-30T07:59:38.440Z,3.90
2017-11-30T08:02:05.932Z,4.00
2017-11-30T08:04:33.421Z,3.90
2017-11-30T08:07:00.913Z,3.90
2017-11-30T08:09:28.458Z,3.80
2017-11-30T08:11:55.944Z,3.80
2017-11-30T08:14:24.214Z,3.80
2017-11-30T08:16:51.726Z,3.90
2017-11-30T08:19:19.961Z,3.90
2017-11-30T08:21:47.507Z,3.80
2017-11-30T08:24:14.994Z,3.90
2017-11-30T08:26:43.264Z,4.20
2017-11-30T08:29:10.771Z,4.10
2017-11-30T08:31:39.035Z,4.30
2017-11-30T08:34:06.518Z,4.30
2017-11-30T08:36:34.029Z,4.30
2017-11-30T08:39:01.530Z,4.30
2017-11-30T08:41:29.809Z,4.20
2017-11-30T08:43:57.287Z,4.20
2017-11-30T08:46:24.769Z,4.30
2017-11-30T08:48:52.262Z,4.40
2017-11-30T08:51:19.741Z,4.40
2017-11-30T08:53:47.266Z,4.40
2017-11-30T08:56:15.588Z,4.50
2017-11-30T08:58:43.913Z,4.40
2017-11-30T09:01:11.453Z,4.40
2017-11-30T09:03:40.007Z,4.60
2017-11-30T09:06:07.502Z,4.50
2017-11-30T09:08:35.003Z,4.70
2017-11-30T09:11:02.501Z,4.70
2017-11-30T09:13:30.776Z,4.60
2017-11-30T09:15:58.328Z,4.60
2017-11-30T09:18:25.894Z,4.70
2017-11-30T09:20:54.136Z,4.70
2017-11-30T09:23:21.704Z,4.60
2017-11-30T09:25:49.190Z,4.70
2017-11-30T09:28:16.705Z,4.70
2017-11-30T09:30:44.213Z,4.80
2017-11-30T09:33:11.711Z,4.90
2017-11-30T09:35:39.969Z,4.90
2017-11-30T09:38:07.442Z,4.80
2017-11-30T09:40:34.980Z,4.90
2017-11-30T09:43:03.271Z,5.10
2017-11-30T09:45:31.579Z,5.20
2017-11-30T09:47:59.098Z,5.10
2017-11-30T09:50:26.839Z,5.20
2017-11-30T09:52:54.361Z,5.30
2017-11-30T09:55:22.596Z,5.40
2017-11-30T09:57:50.137Z,5.40
2017-11-30T10:00:17.715Z,5.30
2017-11-30T10:02:45.190Z,5.20
2017-11-30T10:05:12.699Z,5.30
2017-11-30T10:07:40.961Z,5.30
2017-11-30T10:10:08.478Z,5.30
2017-11-30T10:12:36.028Z,5.20
2017-11-30T10:15:04.289Z,5.10
2017-11-30T10:17:33.867Z,5.10
2017-11-30T10:20:02.356Z,5.30
2017-11-30T10:22:30.953Z,5.30
2017-11-30T10:24:59.510Z,5.30
2017-11-30T10:27:27.095Z,5.30
2017-11-30T10:29:54.608Z,5.30
2017-11-30T10:32:22.150Z,5.10
2017-11-30T10:34:50.397Z,5.20
2017-11-30T10:37:18.942Z,5.10
2017-11-30T10:39:46.465Z,5.10
2017-11-30T10:42:14.935Z,4.80
2017-11-30T10:44:42.435Z,4.80
2017-11-30T10:47:09.970Z,4.60
2017-11-30T10:49:37.590Z,4.60
2017-11-30T10:52:05.874Z,4.80
2017-11-30T10:54:33.353Z,4.70
2017-11-30T10:57:00.880Z,4.70
2017-11-30T10:59:28.373Z,4.60
2017-11-30T11:01:55.868Z,4.60
2017-11-30T11:04:23.332Z,4.50
2017-11-30T11:06:51.625Z,4.40
2017-11-30T11:09:19.888Z,4.40
2017-11-30T11:11:47.481Z,4.40
2017-11-30T11:14:15.100Z,4.50
2017-11-30T11:16:43.454Z,4.60
2017-11-30T11:19:11.008Z,4.60
2017-11-30T11:21:38.688Z,4.50
2017-11-30T11:24:06.910Z,4.50
2017-11-30T11:26:35.472Z,4.60
2017-11-30T11:29:02.978Z,4.60
2017-11-30T11:31:31.381Z,4.70
2017-11-30T11:33:58.890Z,4.90
2017-11-30T11:36:26.441Z,5.00
2017-11-30T11:38:54.700Z,5.20
2017-11-30T11:41:23.043Z,5.00
2017-11-30T11:43:51.320Z,5.20
2017-11-30T11:46:18.800Z,5.20
2017-11-30T11:48:46.312Z,5.20
2017-11-30T11:51:13.802Z,5.00
2017-11-30T11:53:41.373Z,4.80
2017-11-30T11:56:08.869Z,4.50
2017-11-30T11:58:36.372Z,4.60
2017-11-30T12:01:04.772Z,4.60
2017-11-30T12:03:32.233Z,4.50
2017-11-30T12:05:59.758Z,4.50
2017-11-30T12:08:27.271Z,4.50
2017-11-30T12:10:54.749Z,4.60
2017-11-30T12:13:23.114Z,4.60
2017-11-30T12:15:50.587Z,4.60
2017-11-30T12:18:18.111Z,4.60
2017-11-30T12:20:45.632Z,4.70
2017-11-30T12:23:13.870Z,4.80
2017-11-30T12:25:41.379Z,4.80
2017-11-30T12:28:09.125Z,4.80
2017-11-30T12:30:37.369Z,4.70
2017-11-30T12:33:04.907Z,4.70
2017-11-30T12:35:33.141Z,4.70
2017-11-30T12:38:00.709Z,4.70
2017-11-30T12:40:29.075Z,4.70
2017-11-30T12:42:56.585Z,4.50
2017-11-30T12:45:24.130Z,4.60
2017-11-30T12:47:51.738Z,4.60
2017-11-30T12:50:19.315Z,4.50
2017-11-30T12:52:46.828Z,4.50
2017-11-30T12:55:14.323Z,4.60
2017-11-30T12:57:41.829Z,4.50
2017-11-30T13:00:09.450Z,4.50
2017-11-30T13:02:36.963Z,4.30
2017-11-30T13:05:05.358Z,4.40
2017-11-30T13:07:33.618Z,4.50
2017-11-30T13:10:01.140Z,4.50
2017-11-30T13:12:29.379Z,4.50
2017-11-30T13:14:57.045Z,4.50
2017-11-30T13:17:24.669Z,4.50
2017-11-30T13:19:52.382Z,4.30
2017-11-30T13:22:28.005Z,4.40
2017-11-30T13:24:55.561Z,4.30
2017-11-30T13:27:23.018Z,4.20
2017-11-30T13:29:50.534Z,4.10
2017-11-30T13:32:18.299Z,4.00
2017-11-30T13:34:45.811Z,4.10
2017-11-30T13:37:13.282Z,4.10
2017-11-30T13:39:41.555Z,4.00
2017-11-30T13:42:09.265Z,4.00
2017-11-30T13:44:36.812Z,3.90
2017-11-30T13:47:05.050Z,3.80
2017-11-30T13:49:33.595Z,3.80
2017-11-30T13:52:01.036Z,3.70
2017-11-30T13:54:29.242Z,3.70
2017-11-30T13:56:56.723Z,3.70
2017-11-30T13:59:24.224Z,3.70
2017-11-30T14:01:52.665Z,3.70
2017-11-30T14:04:20.917Z,3.60
2017-11-30T14:06:51.866Z,3.70
2017-11-30T14:09:19.476Z,3.60
2017-11-30T14:11:46.988Z,3.60
2017-11-30T14:14:15.275Z,3.70
2017-11-30T14:16:42.824Z,3.70
2017-11-30T14:19:10.731Z,3.80
2017-11-30T14:21:38.663Z,3.80
2017-11-30T14:24:07.045Z,3.90
2017-11-30T14:26:34.533Z,3.60
2017-11-30T14:29:02.033Z,4.00
2017-11-30T14:31:30.378Z,4.00
2017-11-30T14:33:57.871Z,3.80
2017-11-30T14:36:25.511Z,3.90
2017-11-30T14:38:53.027Z,3.90
2017-11-30T14:41:20.516Z,3.90
2017-11-30T14:43:48.763Z,3.80
2017-11-30T14:46:17.024Z,3.80
2017-11-30T14:48:44.530Z,3.70
2017-11-30T14:51:12.851Z,3.70
2017-11-30T14:53:40.635Z,3.70
2017-11-30T14:56:08.157Z,3.70
2017-11-30T14:58:35.667Z,3.70
2017-11-30T15:01:05.167Z,3.70
2017-11-30T15:03:32.843Z,3.70
2017-11-30T15:06:00.502Z,3.60
2017-11-30T15:08:28.929Z,3.50
2017-11-30T15:10:57.271Z,3.60
2017-11-30T15:13:24.880Z,3.50
2017-11-30T15:15:53.293Z,3.60
2017-11-30T15:18:20.890Z,3.60
2017-11-30T15:20:49.218Z,3.60
2017-11-30T15:23:16.754Z,3.60
2017-11-30T15:25:44.259Z,3.70
2017-11-30T15:28:11.870Z,3.60
2017-11-30T15:30:40.184Z,3.60
2017-11-30T15:33:08.512Z,3.60
2017-11-30T15:35:36.337Z,3.60
2017-11-30T15:38:03.932Z,3.70
2017-11-30T15:40:31.547Z,3.60
2017-11-30T15:42:59.110Z,3.50
2017-11-30T15:45:27.505Z,3.60
2017-11-30T15:47:55.780Z,3.60
2017-11-30T15:50:23.358Z,3.50
2017-11-30T15:52:54.009Z,3.60
2017-11-30T15:55:21.524Z,3.60
2017-11-30T15:57:49.043Z,3.50
2017-11-30T16:00:16.812Z,3.40
2017-11-30T16:02:46.406Z,3.40
2017-11-30T16:05:13.898Z,3.50
2017-11-30T16:07:41.386Z,3.50
2017-11-30T16:10:09.653Z,3.40
2017-11-30T16:12:37.174Z,3.40
2017-11-30T16:15:04.676Z,3.30
2017-11-30T16:17:32.189Z,3.30
2017-11-30T16:19:59.698Z,3.30
2017-11-30T16:22:27.231Z,3.40
2017-11-30T16:24:55.528Z,3.50
2017-11-30T16:27:23.071Z,3.40
2017-11-30T16:29:51.974Z,3.40
2017-11-30T16:32:19.466Z,3.30
2017-11-30T16:34:46.980Z,3.30
2017-11-30T16:37:15.298Z,3.10
2017-11-30T16:39:42.869Z,3.10
2017-11-30T16:42:10.330Z,3.10
2017-11-30T16:44:37.869Z,3.10
2017-11-30T16:47:05.538Z,3.00
2017-11-30T16:49:33.580Z,2.90
2017-11-30T16:52:01.106Z,2.80
2017-11-30T16:54:29.370Z,2.70
2017-11-30T16:56:57.016Z,2.70
2017-11-30T16:59:24.557Z,2.60
2017-11-30T17:01:52.827Z,2.50
2017-11-30T17:04:20.425Z,2.50
2017-11-30T17:06:48.686Z,2.50
2017-11-30T17:09:16.343Z,2.50
2017-11-30T17:11:43.844Z,2.40
2017-11-30T17:14:11.472Z,2.40
2017-11-30T17:16:38.984Z,2.50
2017-11-30T17:19:06.546Z,2.50
2017-11-30T17:21:34.128Z,2.50
2017-11-30T17:24:01.806Z,2.50
2017-11-30T17:26:29.415Z,2.50
2017-11-30T17:28:57.070Z,2.50
2017-11-30T17:31:24.747Z,2.50
2017-11-30T17:33:52.308Z,2.50
2017-11-30T17:36:20.654Z,2.50
2017-11-30T17:38:48.200Z,2.50
2017-11-30T17:41:16.487Z,2.40
2017-11-30T17:43:44.280Z,2.40
2017-11-30T17:46:11.966Z,2.40
2017-11-30T17:48:39.479Z,2.40
2017-11-30T17:51:07.000Z,2.40
2017-11-30T17:53:35.328Z,2.40
2017-11-30T17:56:02.931Z,2.40
2017-11-30T17:58:30.509Z,2.40
2017-11-30T18:00:58.751Z,2.30
2017-11-30T18:03:26.365Z,2.30
2017-11-30T18:05:53.855Z,2.30
2017-11-30T18:08:21.365Z,2.20
2017-11-30T18:10:49.634Z,2.20
2017-11-30T18:13:17.901Z,2.20
2017-11-30T18:15:46.236Z,2.10
2017-11-30T18:18:14.709Z,2.10
2017-11-30T18:20:42.195Z,2.10
2017-11-30T18:23:09.715Z,2.10
2017-11-30T18:25:37.344Z,2.10
2017-11-30T18:28:04.865Z,2.10
2017-11-30T18:30:32.389Z,2.00
2017-11-30T18:33:00.996Z,2.00
2017-11-30T18:35:30.336Z,2.00
2017-11-30T18:37:58.673Z,2.00
2017-11-30T18:40:26.355Z,2.00
2017-11-30T18:42:53.843Z,2.00
2017-11-30T18:45:21.360Z,1.90
2017-11-30T18:47:52.181Z,1.90
2017-11-30T18:50:20.719Z,1.90
2017-11-30T18:52:48.247Z,1.90
2017-11-30T18:55:15.928Z,1.90
2017-11-30T18:57:45.204Z,1.80
2017-11-30T19:00:12.805Z,1.80
2017-11-30T19:02:40.362Z,1.80
2017-11-30T19:05:09.034Z,1.80
2017-11-30T19:07:36.521Z,1.70
2017-11-30T19:10:04.015Z,1.70
2017-11-30T19:12:31.485Z,1.70
2017-11-30T19:14:59.876Z,1.70
2017-11-30T19:17:27.396Z,1.70
2017-11-30T19:19:54.926Z,1.80
2017-11-30T19:22:22.567Z,1.70
2017-11-30T19:24:49.993Z,1.70
2017-11-30T19:27:18.416Z,1.70
2017-11-30T19:29:46.814Z,1.70
2017-11-30T19:32:14.313Z,1.70
2017-11-30T19:34:42.864Z,1.60
2017-11-30T19:37:10.357Z,1.60
2017-11-30T19:39:38.620Z,1.70
2017-11-30T19:42:06.948Z,1.70
2017-11-30T19:44:35.491Z,1.70
2017-11-30T19:47:03.765Z,1.70
2017-11-30T19:49:32.017Z,1.70
2017-11-30T19:52:00.511Z,1.70
2017-11-30T19:54:28.028Z,1.70
2017-11-30T19:56:55.528Z,1.60
2017-11-30T19:59:23.744Z,1.70
2017-11-30T20:01:51.227Z,1.60
2017-11-30T20:04:18.912Z,1.70
2017-11-30T20:06:46.473Z,1.60
2017-11-30T20:09:14.800Z,1.50
2017-11-30T20:11:42.301Z,1.50
2017-11-30T20:14:10.560Z,1.50
2017-11-30T20:16:38.207Z,1.50
2017-11-30T20:19:05.777Z,1.50
2017-11-30T20:21:34.259Z,1.50
2017-11-30T20:24:01.756Z,1.40
2017-11-30T20:26:29.256Z,1.40
2017-11-30T20:28:56.766Z,1.40
2017-11-30T20:31:24.310Z,1.40
2017-11-30T20:33:53.675Z,1.40
2017-11-30T20:36:21.426Z,1.30
2017-11-30T20:38:48.904Z,1.40
2017-11-30T20:41:16.558Z,1.40
2017-11-30T20:43:44.037Z,1.40
2017-11-30T20:46:11.554Z,1.40
2017-11-30T20:48:39.853Z,1.30
2017-11-30T20:51:07.375Z,1.30
2017-11-30T20:53:34.977Z,1.30
2017-11-30T20:56:02.473Z,1.30
2017-11-30T20:58:29.963Z,1.30
2017-11-30T21:00:57.459Z,1.30
2017-11-30T21:03:25.805Z,1.30
2017-11-30T21:05:53.306Z,1.30
2017-11-30T21:08:21.722Z,1.10
2017-11-30T21:10:49.179Z,1.10
2017-11-30T21:13:16.687Z,1.00
2017-11-30T21:15:44.964Z,1.00
2017-11-30T21:18:13.227Z,1.00
2017-11-30T21:20:40.720Z,1.00
2017-11-30T21:23:09.125Z,0.90
2017-11-30T21:25:36.700Z,0.90
2017-11-30T21:28:04.168Z,0.80
2017-11-30T21:30:31.639Z,0.80
2017-11-30T21:32:59.144Z,0.80
2017-11-30T21:35:26.638Z,0.80
2017-11-30T21:37:55.103Z,0.90
2017-11-30T21:40:22.633Z,0.90
2017-11-30T21:42:50.123Z,0.80
2017-11-30T21:45:17.599Z,0.80
2017-11-30T21:47:45.099Z,0.90
2017-11-30T21:50:12.618Z,1.00
2017-11-30T21:52:40.863Z,1.10
2017-11-30T21:55:08.355Z,1.10
2017-11-30T21:57:36.632Z,1.20
2017-11-30T22:00:04.883Z,1.20
2017-11-30T22:02:33.415Z,1.20
2017-11-30T22:05:02.676Z,1.40
2017-11-30T22:07:30.945Z,1.40
2017-11-30T22:09:58.442Z,1.40
2017-11-30T22:12:26.041Z,1.50
2017-11-30T22:14:53.619Z,1.60
2017-11-30T22:17:21.886Z,1.70
2017-11-30T22:19:49.373Z,1.70
2017-11-30T22:22:16.901Z,1.80
2017-11-30T22:24:44.392Z,1.90
2017-11-30T22:27:11.877Z,2.00
2017-11-30T22:29:39.442Z,2.00
2017-11-30T22:32:06.929Z,2.00
2017-11-30T22:34:34.423Z,2.10
2017-11-30T22:37:01.959Z,2.00
2017-11-30T22:39:30.317Z,1.90
2017-11-30T22:41:57.819Z,1.90
2017-11-30T22:44:25.337Z,1.80
2017-11-30T22:46:52.889Z,1.70
2017-11-30T22:49:20.678Z,1.60
2017-11-30T22:51:48.949Z,1.50
2017-11-30T22:54:17.198Z,1.40
2017-11-30T22:56:44.675Z,1.40
2017-11-30T22:59:13.052Z,1.40
2017-11-30T23:01:41.375Z,1.50
2017-11-30T23:04:08.841Z,1.50
2017-11-30T23:06:36.384Z,1.50
2017-11-30T23:09:03.954Z,1.50
2017-11-30T23:11:31.435Z,1.70
2017-11-30T23:13:58.918Z,1.60
2017-11-30T23:16:27.161Z,1.60
2017-11-30T23:18:54.674Z,1.60
2017-11-30T23:21:22.153Z,1.60
2017-11-30T23:23:49.636Z,1.60
2017-11-30T23:26:17.126Z,1.70
2017-11-30T23:28:45.467Z,1.60
2017-11-30T23:31:13.066Z,1.60
2017-11-30T23:33:40.755Z,1.60
2017-11-30T23:36:08.223Z,1.60
2017-11-30T23:38:35.718Z,1.70
2017-11-30T23:41:03.976Z,1.60
2017-11-30T23:43:31.436Z,1.60
2017-11-30T23:45:58.933Z,1.60
2017-11-30T23:48:26.405Z,1.60
2017-11-30T23:50:53.972Z,1.60
2017-11-30T23:53:21.487Z,1.60
2017-11-30T23:55:49.754Z,1.50
2017-11-30T23:58:17.240Z,1.50
